sim
Sign-in with your pilot id or email,
or register
Callsign
Passwort

Schedule Details

Flight Number: RYR9117 (2)
Departure: Bratislava M. R. Stefanik Airport (LZIB) at 18:15
Arrival: Paris Beauvais-Tille Airport (LFOB) at 20:20
Route: Ryanair Passenger Schedule. Enter filed route here before submitting Pirep.

Weather Information
Getting current METAR information for LZIB 232030Z 05003KT 360V080 CAVOK 13/10 Q1017
Getting current METAR information for LFOB 232030Z AUTO 16006KT 090V250 6000 NSC 12/11 Q1008 BECMG 3000 BR

Schedule Frequency

Route Map